Time;durP1;ratioP1;P1;durP2;ratioP2;P2;SDS_P1;SDS_P2;PMS_P1;PMS_P2;Temp;Humidity;BMP_temperature;BMP_pressure;BME280_temperature;BME280_humidity;BME280_pressure;Samples;Min_cycle;Max_cycle;Signal;HPM_P1;HPM_P2
2024/01/02 00:00:02;;;;;;;18.35;3.38;;;6.90;99.90;;;;;;4964468;28;20042;-81
2024/01/02 00:02:38;;;;;;;19.48;3.72;;;6.90;99.90;;;;;;4999490;28;20042;-81
2024/01/02 00:05:05;;;;;;;23.52;3.45;;;6.90;99.90;;;;;;4984522;28;20042;-83
2024/01/02 00:07:31;;;;;;;18.15;3.40;;;6.90;99.90;;;;;;4983292;28;20038;-83
2024/01/02 00:09:58;;;;;;;16.45;3.38;;;6.90;99.90;;;;;;4981580;28;20530;-83
2024/01/02 00:12:24;;;;;;;23.67;4.38;;;6.90;99.90;;;;;;4964320;28;20044;-79
2024/01/02 00:14:52;;;;;;;21.02;3.63;;;6.90;99.90;;;;;;4962672;28;20081;-80
2024/01/02 00:17:18;;;;;;;19.15;3.20;;;6.90;99.90;;;;;;4978108;28;20527;-78
2024/01/02 00:19:44;;;;;;;19.42;4.35;;;6.90;99.90;;;;;;4979649;28;20038;-80
2024/01/02 00:22:11;;;;;;;18.05;3.63;;;6.90;99.90;;;;;;4995390;28;20345;-78
2024/01/02 00:24:38;;;;;;;19.33;2.95;;;6.90;99.90;;;;;;4980539;28;20034;-82
2024/01/02 00:27:04;;;;;;;25.15;4.18;;;6.90;99.90;;;;;;4963670;28;20073;-83
2024/01/02 00:29:30;;;;;;;21.10;4.07;;;6.90;99.90;;;;;;4980342;28;20065;-82
2024/01/02 00:31:57;;;;;;;19.48;4.28;;;6.90;99.90;;;;;;4960598;28;20462;-83
2024/01/02 00:34:25;;;;;;;18.02;3.38;;;6.90;99.90;;;;;;4963512;28;20045;-80
2024/01/02 00:36:51;;;;;;;21.67;3.90;;;6.90;99.90;;;;;;4977065;28;20035;-83
2024/01/02 00:39:17;;;;;;;19.17;3.60;;;7.00;99.90;;;;;;4978516;28;20038;-83
2024/01/02 00:41:44;;;;;;;24.25;3.35;;;7.00;99.90;;;;;;4946644;28;20034;-78
2024/01/02 00:44:10;;;;;;;18.33;2.83;;;6.90;99.90;;;;;;4978800;28;20034;-81
2024/01/02 00:46:37;;;;;;;19.73;3.60;;;7.00;99.90;;;;;;4978185;28;20049;-82
2024/01/02 00:49:03;;;;;;;22.35;3.80;;;7.00;99.90;;;;;;4963293;28;20026;-83
2024/01/02 00:51:30;;;;;;;22.27;3.60;;;7.00;99.90;;;;;;4979825;28;20053;-80
2024/01/02 00:53:59;;;;;;;12.18;2.65;;;7.00;99.90;;;;;;4964160;28;20054;-81
2024/01/02 00:56:25;;;;;;;23.67;3.08;;;7.00;99.90;;;;;;4964014;28;20041;-80
2024/01/02 00:58:51;;;;;;;19.27;3.70;;;7.00;99.90;;;;;;4962668;28;20038;-80
2024/01/02 01:01:18;;;;;;;16.95;3.25;;;7.00;99.90;;;;;;4962582;28;20030;-80
2024/01/02 01:03:45;;;;;;;18.20;3.22;;;7.00;99.90;;;;;;4995354;28;20362;-81
2024/01/02 01:06:11;;;;;;;14.15;2.88;;;7.00;99.90;;;;;;4961495;28;20485;-79
2024/01/02 01:08:37;;;;;;;16.50;2.95;;;7.00;99.90;;;;;;4978775;28;20572;-82
2024/01/02 01:11:04;;;;;;;15.65;2.75;;;7.00;99.90;;;;;;4979259;28;20397;-78
2024/01/02 01:13:30;;;;;;;17.67;2.90;;;7.00;99.90;;;;;;4961620;28;20041;-79
2024/01/02 01:15:56;;;;;;;12.85;2.88;;;7.00;99.90;;;;;;4961840;28;20045;-81
2024/01/02 01:18:23;;;;;;;16.80;2.72;;;7.10;99.90;;;;;;4977705;28;20347;-82
2024/01/02 01:20:49;;;;;;;20.70;3.28;;;7.10;99.90;;;;;;4980298;28;20971;-78
2024/01/02 01:23:15;;;;;;;13.25;2.55;;;7.10;99.90;;;;;;4961805;28;20053;-82
2024/01/02 01:25:42;;;;;;;7.20;2.28;;;7.10;99.90;;;;;;4993863;28;20050;-79
2024/01/02 01:28:08;;;;;;;18.63;2.42;;;7.10;99.90;;;;;;4977952;28;20049;-82
2024/01/02 01:30:35;;;;;;;11.10;2.20;;;7.10;99.90;;;;;;4977426;28;20030;-81
2024/01/02 01:33:01;;;;;;;10.38;1.98;;;7.10;99.90;;;;;;4961548;28;20448;-79
2024/01/02 01:35:27;;;;;;;14.57;2.40;;;7.10;99.90;;;;;;4979062;28;20038;-81
2024/01/02 01:37:54;;;;;;;13.02;2.20;;;7.10;99.90;;;;;;4976189;28;20030;-82
2024/01/02 01:40:20;;;;;;;8.63;2.10;;;7.10;99.90;;;;;;4945981;28;20042;-81
2024/01/02 01:42:46;;;;;;;13.63;2.22;;;7.10;99.90;;;;;;4960886;28;20035;-82
2024/01/02 01:45:13;;;;;;;10.32;1.92;;;7.10;99.90;;;;;;4977219;28;20045;-81
2024/01/02 01:47:40;;;;;;;14.68;2.83;;;7.20;99.90;;;;;;4978173;28;20041;-78
2024/01/02 01:50:07;;;;;;;13.13;2.10;;;7.20;99.90;;;;;;4978080;28;20038;-80
2024/01/02 01:52:34;;;;;;;12.55;1.95;;;7.20;99.90;;;;;;4945037;28;20370;-80
2024/01/02 01:55:01;;;;;;;7.57;1.30;;;7.20;99.90;;;;;;4977629;28;20049;-81
2024/01/02 01:57:28;;;;;;;7.60;1.60;;;7.20;99.90;;;;;;4977005;28;20045;-81
2024/01/02 01:59:55;;;;;;;10.15;1.70;;;7.20;99.90;;;;;;4976483;28;20122;-79
2024/01/02 02:02:21;;;;;;;11.88;2.15;;;7.20;99.90;;;;;;4963028;28;20587;-81
2024/01/02 02:04:49;;;;;;;15.80;1.80;;;7.20;99.90;;;;;;4947989;28;20045;-76
2024/01/02 02:07:16;;;;;;;6.03;1.23;;;7.20;99.90;;;;;;4995476;28;20122;-81
2024/01/02 02:09:42;;;;;;;7.78;1.23;;;7.20;99.90;;;;;;4977964;28;20474;-78
2024/01/02 02:12:08;;;;;;;7.15;1.60;;;7.30;99.90;;;;;;4961127;28;20034;-79
2024/01/02 02:14:35;;;;;;;5.65;1.67;;;7.20;99.90;;;;;;4976037;28;20385;-78
2024/01/02 02:17:01;;;;;;;6.22;1.05;;;7.20;99.90;;;;;;4974995;28;20043;-79
2024/01/02 02:19:28;;;;;;;7.45;1.40;;;7.20;99.90;;;;;;4959317;28;20416;-81
2024/01/02 02:21:59;;;;;;;10.32;1.33;;;7.20;99.90;;;;;;4960183;28;20045;-79
2024/01/02 02:24:27;;;;;;;8.30;1.33;;;7.30;99.90;;;;;;4977666;28;20049;-82
2024/01/02 02:26:56;;;;;;;5.97;1.00;;;7.30;99.90;;;;;;4960258;28;20045;-80
2024/01/02 02:29:23;;;;;;;5.90;0.80;;;7.30;99.90;;;;;;4946068;28;20033;-80
2024/01/02 02:31:49;;;;;;;8.10;1.38;;;7.20;99.90;;;;;;4979170;28;20030;-79
2024/01/02 02:34:15;;;;;;;8.38;1.42;;;7.20;99.90;;;;;;4980100;28;20034;-79
2024/01/02 02:36:42;;;;;;;5.63;1.33;;;7.20;99.90;;;;;;4961718;28;20030;-81
2024/01/02 02:39:09;;;;;;;5.18;0.85;;;7.20;99.90;;;;;;4961018;28;20413;-81
2024/01/02 02:41:36;;;;;;;7.32;1.20;;;7.20;99.90;;;;;;4947422;28;20397;-78
2024/01/02 02:44:02;;;;;;;5.72;0.80;;;7.20;99.90;;;;;;4977522;28;20041;-80
2024/01/02 02:46:28;;;;;;;6.60;1.40;;;7.20;99.90;;;;;;4978815;28;20045;-81
2024/01/02 02:48:55;;;;;;;5.65;1.05;;;7.30;99.90;;;;;;4978267;28;20042;-81
2024/01/02 02:51:21;;;;;;;6.95;1.17;;;7.30;99.90;;;;;;4978485;28;20044;-79
2024/01/02 02:53:48;;;;;;;5.30;1.55;;;7.30;99.90;;;;;;4962153;28;20038;-78
2024/01/02 02:56:15;;;;;;;7.57;1.30;;;7.30;99.90;;;;;;4980431;28;20047;-80
2024/01/02 02:58:42;;;;;;;6.10;1.70;;;7.30;99.90;;;;;;4979499;28;20038;-79
2024/01/02 03:01:08;;;;;;;5.13;1.15;;;7.30;99.90;;;;;;4981691;28;20413;-79
2024/01/02 03:03:36;;;;;;;5.10;1.40;;;7.30;99.90;;;;;;4982199;28;20034;-80
2024/01/02 03:06:02;;;;;;;4.93;1.15;;;7.30;99.90;;;;;;4967404;28;20129;-80
2024/01/02 03:08:28;;;;;;;6.70;1.60;;;7.20;99.90;;;;;;4982266;28;20390;-81
2024/01/02 03:10:59;;;;;;;7.95;1.92;;;7.30;99.90;;;;;;4983350;28;20053;-79
2024/01/02 03:13:25;;;;;;;5.32;1.23;;;7.30;99.90;;;;;;4980890;28;20045;-79
2024/01/02 03:15:51;;;;;;;6.00;1.50;;;7.30;99.90;;;;;;4980457;28;20465;-79
2024/01/02 03:18:17;;;;;;;10.02;1.08;;;7.30;99.90;;;;;;4981361;28;20034;-79
2024/01/02 03:20:44;;;;;;;8.45;1.80;;;7.20;99.90;;;;;;4980051;28;20053;-80
2024/01/02 03:23:10;;;;;;;5.90;1.00;;;7.30;99.90;;;;;;4963829;28;20030;-79
2024/01/02 03:25:37;;;;;;;5.03;1.77;;;7.30;99.90;;;;;;4948087;28;20481;-79
2024/01/02 03:28:04;;;;;;;3.75;1.73;;;7.30;99.90;;;;;;4980776;28;20038;-76
2024/01/02 03:30:31;;;;;;;5.68;2.00;;;7.30;99.90;;;;;;4979530;28;20030;-80
2024/01/02 03:32:57;;;;;;;4.63;1.38;;;7.20;99.90;;;;;;4980041;28;20477;-80
2024/01/02 03:35:24;;;;;;;6.95;1.52;;;7.30;99.90;;;;;;4980714;28;20029;-80
2024/01/02 03:37:50;;;;;;;4.47;1.40;;;7.30;99.90;;;;;;4979640;28;20049;-81
2024/01/02 03:40:16;;;;;;;2.33;1.10;;;7.30;99.90;;;;;;4963630;28;20038;-79
2024/01/02 03:42:43;;;;;;;3.75;1.52;;;7.30;99.90;;;;;;4979661;28;20035;-80
2024/01/02 03:45:09;;;;;;;5.40;1.50;;;7.30;99.90;;;;;;4947630;28;20045;-81
2024/01/02 03:47:36;;;;;;;2.60;1.25;;;7.30;99.90;;;;;;4963889;28;20046;-80
2024/01/02 03:50:02;;;;;;;3.28;1.30;;;7.30;99.90;;;;;;4981070;28;20041;-81
2024/01/02 03:52:28;;;;;;;4.35;1.42;;;7.30;99.90;;;;;;4965377;28;20022;-80
2024/01/02 03:54:55;;;;;;;3.30;0.95;;;7.30;99.90;;;;;;4961734;28;20038;-79
2024/01/02 03:57:21;;;;;;;5.30;1.10;;;7.30;99.90;;;;;;4963120;28;20477;-81
2024/01/02 03:59:48;;;;;;;1.55;0.90;;;7.30;99.90;;;;;;4962471;28;20038;-77
2024/01/02 04:02:14;;;;;;;2.88;0.70;;;7.30;99.90;;;;;;4963763;28;20430;-76
2024/01/02 04:04:40;;;;;;;2.65;0.80;;;7.40;99.90;;;;;;4979900;28;20034;-78
2024/01/02 04:07:07;;;;;;;3.95;1.33;;;7.40;99.90;;;;;;4963123;28;20239;-79
2024/01/02 04:09:33;;;;;;;1.58;0.95;;;7.40;99.90;;;;;;4978772;28;20039;-79
2024/01/02 04:11:59;;;;;;;2.95;1.42;;;7.40;99.90;;;;;;4979780;28;20026;-78
2024/01/02 04:14:26;;;;;;;3.35;1.33;;;7.50;99.90;;;;;;4981485;28;20027;-78
2024/01/02 04:16:52;;;;;;;5.00;1.88;;;7.40;99.90;;;;;;4979404;28;20034;-79
2024/01/02 04:19:21;;;;;;;3.33;1.38;;;7.50;99.90;;;;;;4979763;28;20038;-80
2024/01/02 04:21:47;;;;;;;2.50;1.30;;;7.50;99.90;;;;;;4944950;28;20038;-77
2024/01/02 04:24:14;;;;;;;1.98;1.60;;;7.50;99.90;;;;;;4948476;28;20026;-80
2024/01/02 04:26:41;;;;;;;2.15;1.30;;;7.50;99.90;;;;;;4980005;28;20043;-81
2024/01/02 04:29:07;;;;;;;1.63;0.90;;;7.50;99.90;;;;;;4980141;28;20482;-80
2024/01/02 04:31:33;;;;;;;2.67;1.33;;;7.50;99.90;;;;;;4961978;28;21458;-78
2024/01/02 04:34:00;;;;;;;3.00;1.48;;;7.50;99.90;;;;;;4995121;28;20046;-79
2024/01/02 04:36:26;;;;;;;2.35;1.20;;;7.50;99.90;;;;;;4995623;28;20042;-78
2024/01/02 04:38:52;;;;;;;2.92;1.00;;;7.60;99.90;;;;;;4996559;28;20034;-78
2024/01/02 04:41:20;;;;;;;1.63;1.00;;;7.60;99.90;;;;;;4979852;28;20038;-80
2024/01/02 04:43:46;;;;;;;3.33;1.25;;;7.60;99.90;;;;;;4963451;28;20037;-78
2024/01/02 04:46:12;;;;;;;2.88;1.38;;;7.70;99.90;;;;;;4964341;28;23014;-80
2024/01/02 04:48:39;;;;;;;1.92;1.15;;;7.60;99.90;;;;;;4964319;28;20045;-82
2024/01/02 04:51:05;;;;;;;2.80;1.00;;;7.70;99.90;;;;;;4963834;28;20037;-82
2024/01/02 04:53:31;;;;;;;3.25;0.90;;;7.70;99.90;;;;;;4979154;28;20023;-80
2024/01/02 04:55:58;;;;;;;2.47;1.10;;;7.70;99.90;;;;;;4980861;28;20030;-77
2024/01/02 04:58:24;;;;;;;1.60;1.05;;;7.70;99.90;;;;;;4978787;28;20030;-81
2024/01/02 05:00:50;;;;;;;1.23;0.70;;;7.80;99.90;;;;;;4978889;28;20678;-81
2024/01/02 05:03:17;;;;;;;0.88;0.65;;;7.80;99.90;;;;;;4979435;28;20509;-81
2024/01/02 05:05:43;;;;;;;1.35;0.70;;;7.80;99.90;;;;;;4980031;28;20038;-82
2024/01/02 05:08:09;;;;;;;1.00;0.57;;;7.80;99.90;;;;;;4963430;28;20038;-76
2024/01/02 05:10:36;;;;;;;0.88;0.60;;;7.90;99.90;;;;;;4948496;28;20478;-81
2024/01/02 05:13:03;;;;;;;1.52;0.80;;;7.90;99.90;;;;;;4963244;28;20065;-82
2024/01/02 05:15:29;;;;;;;0.95;0.80;;;7.90;99.90;;;;;;4978514;28;20031;-80
2024/01/02 05:17:56;;;;;;;1.35;0.70;;;8.00;99.90;;;;;;4980923;28;20233;-80
2024/01/02 05:20:22;;;;;;;4.03;1.65;;;8.00;99.90;;;;;;4994451;28;20045;-81
2024/01/02 05:22:49;;;;;;;2.53;1.30;;;8.00;99.90;;;;;;4965189;28;20038;-82
2024/01/02 05:25:15;;;;;;;1.70;1.30;;;8.10;99.90;;;;;;4980422;28;20034;-83
2024/01/02 05:27:41;;;;;;;1.83;1.30;;;8.10;99.90;;;;;;4978007;28;20042;-84
2024/01/02 05:30:08;;;;;;;2.35;1.23;;;8.20;99.90;;;;;;4962600;28;20389;-80
2024/01/02 05:32:34;;;;;;;2.80;1.75;;;8.20;99.90;;;;;;4962894;28;20038;-79
2024/01/02 05:35:01;;;;;;;2.63;1.48;;;8.20;99.90;;;;;;4976960;28;20041;-83
2024/01/02 05:37:27;;;;;;;2.20;1.50;;;8.20;99.90;;;;;;4978191;28;20341;-83
2024/01/02 05:39:55;;;;;;;2.28;1.48;;;8.30;99.90;;;;;;4978170;28;20569;-82
2024/01/02 05:42:21;;;;;;;2.28;1.20;;;8.40;99.90;;;;;;4979802;28;20034;-80
2024/01/02 05:44:48;;;;;;;2.22;1.60;;;8.40;99.90;;;;;;4977458;28;20038;-82
2024/01/02 05:47:15;;;;;;;2.13;1.30;;;8.50;99.90;;;;;;4975740;28;20034;-80
2024/01/02 05:49:41;;;;;;;2.45;1.30;;;8.50;99.90;;;;;;4963578;28;20042;-77
2024/01/02 05:52:08;;;;;;;2.92;1.70;;;8.50;99.90;;;;;;4977970;28;20045;-82
2024/01/02 05:54:34;;;;;;;3.53;2.13;;;8.50;99.90;;;;;;4962829;28;20041;-83
2024/01/02 05:57:01;;;;;;;4.82;2.28;;;8.60;99.90;;;;;;4980133;28;20026;-83
2024/01/02 05:59:28;;;;;;;2.75;1.95;;;8.60;99.90;;;;;;4978868;28;20038;-82
2024/01/02 06:01:54;;;;;;;3.65;2.40;;;8.70;99.90;;;;;;4977077;28;20042;-78
2024/01/02 06:04:21;;;;;;;3.30;1.95;;;8.70;99.90;;;;;;4981980;28;20030;-82
2024/01/02 06:06:47;;;;;;;4.10;2.40;;;8.70;99.90;;;;;;4976525;28;20041;-77
2024/01/02 06:09:13;;;;;;;4.03;2.60;;;8.80;99.90;;;;;;4976278;28;20034;-76
2024/01/02 06:11:40;;;;;;;4.18;2.50;;;8.80;99.90;;;;;;4973874;28;20042;-80
2024/01/02 06:14:06;;;;;;;5.18;2.85;;;8.90;99.90;;;;;;4976847;28;20038;-80
2024/01/02 06:16:32;;;;;;;4.63;3.15;;;8.90;99.90;;;;;;4977337;28;20042;-80
2024/01/02 06:18:59;;;;;;;5.68;3.28;;;9.00;99.90;;;;;;4977227;28;20500;-81
2024/01/02 06:21:25;;;;;;;3.75;2.15;;;9.00;99.90;;;;;;4961103;28;20500;-81
2024/01/02 06:23:51;;;;;;;3.67;2.10;;;9.10;99.90;;;;;;4976067;28;20030;-81
2024/01/02 06:26:18;;;;;;;4.80;2.83;;;9.10;99.90;;;;;;4977763;28;20049;-78
2024/01/02 06:28:44;;;;;;;4.97;2.72;;;9.20;99.90;;;;;;4975017;28;20038;-79
2024/01/02 06:31:10;;;;;;;8.40;4.82;;;9.20;99.90;;;;;;4975759;28;20030;-82
2024/01/02 06:33:39;;;;;;;6.63;3.50;;;9.30;99.90;;;;;;4960624;28;20499;-82
2024/01/02 06:36:05;;;;;;;6.18;3.45;;;9.30;99.90;;;;;;4978457;28;20038;-82
2024/01/02 06:38:32;;;;;;;6.93;3.85;;;9.40;99.90;;;;;;4976475;28;20038;-81
2024/01/02 06:41:00;;;;;;;5.45;2.72;;;9.40;99.90;;;;;;4975625;28;20050;-79
2024/01/02 06:43:26;;;;;;;8.18;4.55;;;9.50;99.90;;;;;;4975253;28;20027;-80
2024/01/02 06:45:52;;;;;;;12.18;5.78;;;9.50;99.90;;;;;;4979149;28;20045;-79
2024/01/02 06:48:19;;;;;;;10.20;5.50;;;9.60;99.90;;;;;;4976936;28;20039;-81
2024/01/02 06:50:46;;;;;;;13.27;6.38;;;9.60;99.90;;;;;;4978745;28;20037;-81
2024/01/02 06:53:13;;;;;;;17.15;6.95;;;9.70;99.90;;;;;;4976582;28;20110;-81
2024/01/02 06:55:39;;;;;;;15.05;7.70;;;9.80;99.90;;;;;;4977155;28;20046;-80
2024/01/02 06:58:05;;;;;;;19.00;9.23;;;9.80;99.90;;;;;;4958950;28;20033;-82
2024/01/02 07:00:32;;;;;;;16.13;8.02;;;9.90;99.90;;;;;;4960281;28;20049;-78
2024/01/02 07:03:02;;;;;;;29.77;11.95;;;9.90;99.90;;;;;;4977920;28;20500;-82
2024/01/02 07:05:28;;;;;;;26.65;13.60;;;10.00;99.90;;;;;;4976117;28;20607;-83
2024/01/02 07:07:54;;;;;;;20.63;11.38;;;10.00;99.90;;;;;;4958182;28;20034;-81
2024/01/02 07:10:21;;;;;;;21.92;10.45;;;10.00;99.90;;;;;;4961068;28;20404;-82
2024/01/02 07:12:47;;;;;;;34.80;13.93;;;10.10;99.90;;;;;;4961415;28;20050;-82
2024/01/02 07:15:13;;;;;;;22.42;12.52;;;10.10;99.90;;;;;;4963038;28;20497;-85
2024/01/02 07:17:41;;;;;;;30.77;14.63;;;10.20;99.90;;;;;;4976571;28;20050;-81
2024/01/02 07:20:08;;;;;;;23.13;12.18;;;10.20;99.90;;;;;;4976653;28;20039;-82
2024/01/02 07:22:35;;;;;;;25.85;12.52;;;10.20;99.90;;;;;;4977794;28;20248;-83
2024/01/02 07:25:01;;;;;;;25.42;12.30;;;10.30;99.90;;;;;;4977666;28;20061;-82
2024/01/02 07:27:27;;;;;;;26.88;11.88;;;10.30;99.90;;;;;;4980819;28;20071;-84
2024/01/02 07:29:54;;;;;;;30.27;13.68;;;10.30;99.90;;;;;;4978171;28;20058;-82
2024/01/02 07:32:20;;;;;;;38.13;14.48;;;10.30;99.90;;;;;;4979045;28;20483;-83
2024/01/02 07:34:46;;;;;;;31.05;13.43;;;10.40;99.90;;;;;;4958994;28;20409;-82
2024/01/02 07:37:12;;;;;;;31.45;12.60;;;10.40;99.90;;;;;;4979346;28;20381;-83
2024/01/02 07:39:39;;;;;;;25.20;11.82;;;10.40;99.90;;;;;;4979671;28;20494;-83
2024/01/02 07:42:08;;;;;;;37.08;12.18;;;10.40;99.90;;;;;;4979505;28;20485;-84
2024/01/02 07:44:34;;;;;;;34.08;11.93;;;10.40;99.90;;;;;;4980196;28;20409;-83
2024/01/02 07:47:01;;;;;;;36.45;10.63;;;10.50;99.90;;;;;;4981176;28;20381;-81
2024/01/02 07:49:27;;;;;;;24.17;8.77;;;10.50;99.90;;;;;;4981695;28;20689;-79
2024/01/02 07:51:54;;;;;;;35.45;9.48;;;10.50;99.90;;;;;;4965195;28;20030;-83
2024/01/02 07:54:21;;;;;;;24.27;7.35;;;10.50;99.90;;;;;;4997949;28;20034;-81
2024/01/02 07:56:48;;;;;;;28.23;6.97;;;10.50;99.90;;;;;;4949662;28;20030;-81
2024/01/02 07:59:17;;;;;;;32.85;7.38;;;10.50;99.90;;;;;;4962905;28;20038;-77
2024/01/02 08:01:44;;;;;;;36.22;7.50;;;10.50;99.90;;;;;;4980389;28;20042;-81
2024/01/02 08:04:10;;;;;;;29.98;6.88;;;10.60;99.90;;;;;;4965166;28;20034;-78
2024/01/02 08:06:36;;;;;;;29.88;6.45;;;10.60;99.90;;;;;;4979665;28;20321;-81
2024/01/02 08:09:03;;;;;;;30.85;5.72;;;10.60;99.90;;;;;;4981623;28;20042;-82
2024/01/02 08:11:29;;;;;;;36.95;6.90;;;10.60;99.90;;;;;;4980580;28;20474;-82
2024/01/02 08:13:56;;;;;;;21.05;4.85;;;10.60;99.90;;;;;;4948645;28;20042;-83
2024/01/02 08:16:22;;;;;;;34.03;5.63;;;10.60;99.90;;;;;;4963188;28;20034;-80
2024/01/02 08:18:49;;;;;;;32.05;5.50;;;10.70;99.90;;;;;;4980816;28;23075;-78
2024/01/02 08:21:15;;;;;;;26.52;4.68;;;10.70;99.90;;;;;;4978300;28;20489;-80
2024/01/02 08:23:41;;;;;;;20.67;5.25;;;10.70;99.90;;;;;;4980422;28;20489;-81
2024/01/02 08:26:15;;;;;;;34.25;6.60;;;10.70;99.90;;;;;;4979489;28;20038;-79
2024/01/02 08:28:41;;;;;;;27.73;5.57;;;10.70;99.90;;;;;;4979601;28;20050;-83
2024/01/02 08:31:08;;;;;;;35.85;7.13;;;10.70;99.90;;;;;;4979620;28;20101;-82
2024/01/02 08:33:34;;;;;;;20.63;6.82;;;10.70;99.90;;;;;;4994690;28;20433;-83
2024/01/02 08:36:01;;;;;;;22.67;6.20;;;10.70;99.90;;;;;;4980217;28;20034;-84
2024/01/02 08:38:27;;;;;;;16.52;5.80;;;10.70;99.90;;;;;;4979776;28;20041;-78
2024/01/02 08:40:54;;;;;;;26.98;5.97;;;10.70;99.90;;;;;;4963032;28;20046;-82
2024/01/02 08:43:20;;;;;;;30.25;7.57;;;10.70;99.90;;;;;;4963859;28;20037;-79
2024/01/02 08:45:46;;;;;;;22.98;6.28;;;10.70;99.90;;;;;;4977745;28;20038;-82
2024/01/02 08:48:14;;;;;;;30.80;6.43;;;10.70;99.90;;;;;;4980638;28;20026;-82
2024/01/02 08:50:42;;;;;;;22.45;6.10;;;10.70;99.90;;;;;;4960765;28;20038;-81
2024/01/02 08:53:17;;;;;;;26.85;7.28;;;10.70;99.90;;;;;;4976554;28;20041;-82
2024/01/02 08:55:43;;;;;;;33.20;6.57;;;10.70;99.90;;;;;;4981263;28;20034;-80
2024/01/02 08:58:12;;;;;;;31.83;6.97;;;10.70;99.90;;;;;;4945527;28;20030;-82
2024/01/02 09:00:38;;;;;;;26.33;5.72;;;10.70;99.90;;;;;;4980686;28;20049;-83
2024/01/02 09:03:06;;;;;;;27.35;6.22;;;10.80;99.90;;;;;;4965099;28;20043;-82
2024/01/02 09:05:32;;;;;;;33.00;6.38;;;10.80;99.90;;;;;;4961663;28;20034;-83
2024/01/02 09:08:00;;;;;;;23.25;4.82;;;10.80;99.90;;;;;;4962795;28;20034;-82
2024/01/02 09:10:26;;;;;;;29.08;5.97;;;10.80;99.90;;;;;;4981376;28;20045;-84
2024/01/02 09:12:52;;;;;;;31.55;5.93;;;10.80;99.90;;;;;;4980328;28;20053;-84
2024/01/02 09:15:19;;;;;;;25.55;5.82;;;10.80;99.90;;;;;;4948560;28;20037;-83
2024/01/02 09:17:46;;;;;;;26.88;5.90;;;10.80;99.90;;;;;;4964267;28;20034;-79
2024/01/02 09:20:12;;;;;;;33.75;7.35;;;10.80;99.90;;;;;;4979753;28;20041;-81
2024/01/02 09:22:38;;;;;;;27.35;6.28;;;10.90;99.90;;;;;;4962674;28;20398;-83
2024/01/02 09:25:05;;;;;;;35.63;8.95;;;10.90;99.90;;;;;;4962383;28;20346;-81
2024/01/02 09:27:34;;;;;;;39.33;8.65;;;11.00;99.90;;;;;;4996804;28;20073;-83
2024/01/02 09:30:00;;;;;;;31.70;8.32;;;11.00;99.90;;;;;;4961589;28;20033;-84
2024/01/02 09:32:27;;;;;;;31.42;7.95;;;11.00;99.90;;;;;;4978881;28;20035;-84
2024/01/02 09:34:54;;;;;;;25.13;6.75;;;11.00;99.90;;;;;;4963310;28;20953;-78
2024/01/02 09:37:21;;;;;;;21.92;6.00;;;11.10;99.90;;;;;;4995855;28;21090;-82
2024/01/02 09:39:47;;;;;;;36.03;9.82;;;11.10;99.90;;;;;;4961791;28;20417;-80
2024/01/02 09:42:52;;;;;;;23.13;7.60;;;11.10;99.90;;;;;;4978589;28;20382;-81
2024/01/02 09:45:40;;;;;;;27.40;8.45;;;11.10;99.90;;;;;;4960470;28;20058;-81
2024/01/02 09:48:18;;;;;;;23.05;7.45;;;11.10;99.90;;;;;;4977575;28;20505;-76
2024/01/02 09:51:06;;;;;;;30.45;8.60;;;11.20;99.90;;;;;;4966004;28;20034;-82
2024/01/02 09:54:16;;;;;;;29.15;8.07;;;11.20;99.90;;;;;;4965018;28;20492;-78
2024/01/02 09:56:55;;;;;;;30.63;10.00;;;11.20;99.90;;;;;;4956025;28;20069;-83
2024/01/02 09:59:44;;;;;;;25.77;9.80;;;11.20;99.90;;;;;;4958845;28;20481;-85
2024/01/02 10:02:29;;;;;;;33.42;9.88;;;11.30;99.90;;;;;;4995306;28;20490;-85
2024/01/02 10:05:15;;;;;;;25.83;9.80;;;11.30;99.90;;;;;;4975888;28;20038;-83
2024/01/02 10:08:08;;;;;;;24.70;9.48;;;11.30;99.90;;;;;;4994844;28;20050;-85
2024/01/02 10:11:00;;;;;;;33.40;11.38;;;11.30;99.90;;;;;;4945954;28;20081;-82
2024/01/02 10:13:50;;;;;;;33.20;12.02;;;11.30;99.90;;;;;;4994848;28;20038;-84
2024/01/02 10:16:41;;;;;;;48.08;18.52;;;11.30;99.90;;;;;;4978382;28;20030;-85
2024/01/02 10:19:19;;;;;;;33.75;14.15;;;11.30;99.90;;;;;;4959944;28;20030;-84
2024/01/02 10:21:55;;;;;;;35.97;16.05;;;11.40;99.90;;;;;;4981463;28;20041;-80
2024/01/02 10:24:39;;;;;;;35.97;18.00;;;11.40;99.90;;;;;;4994970;28;20041;-81
2024/01/02 10:27:15;;;;;;;42.85;17.63;;;11.40;99.90;;;;;;4977238;28;20049;-84
2024/01/02 10:29:57;;;;;;;44.30;18.42;;;11.40;99.90;;;;;;4979502;28;20046;-84
2024/01/02 10:32:41;;;;;;;55.38;20.98;;;11.40;99.90;;;;;;4979139;28;20497;-82
2024/01/02 10:35:15;;;;;;;58.15;23.17;;;11.50;99.90;;;;;;4977327;28;20023;-83
2024/01/02 10:37:59;;;;;;;42.83;19.58;;;11.40;99.90;;;;;;4977282;28;20049;-81
2024/01/02 10:40:27;;;;;;;35.03;16.65;;;11.50;99.90;;;;;;4965718;28;20037;-77
2024/01/02 10:43:27;;;;;;;36.90;16.17;;;11.50;99.90;;;;;;4977657;28;20030;-84
2024/01/02 10:46:21;;;;;;;36.15;16.38;;;11.50;99.90;;;;;;4962702;28;20038;-83
2024/01/02 10:49:25;;;;;;;34.42;15.30;;;11.50;99.90;;;;;;4959697;28;20349;-80
2024/01/02 10:52:05;;;;;;;31.00;13.13;;;11.50;99.90;;;;;;4977854;28;20141;-83
2024/01/02 10:54:42;;;;;;;30.30;13.23;;;11.40;99.90;;;;;;4962801;28;20482;-84
2024/01/02 10:57:17;;;;;;;39.80;15.60;;;11.50;99.90;;;;;;4993883;28;20026;-82
2024/01/02 10:59:57;;;;;;;22.90;11.60;;;11.50;99.90;;;;;;4992334;28;20423;-81
2024/01/02 11:02:51;;;;;;;27.83;12.63;;;11.50;99.90;;;;;;4962473;28;20432;-89
2024/01/02 11:05:23;;;;;;;39.40;15.68;;;11.50;99.90;;;;;;4977212;28;20047;-79
2024/01/02 11:07:57;;;;;;;27.80;13.50;;;11.50;99.90;;;;;;4963534;28;20041;-85
2024/01/02 11:10:25;;;;;;;25.80;12.85;;;11.50;99.90;;;;;;4976995;28;20042;-87
2024/01/02 11:12:57;;;;;;;25.58;12.45;;;11.50;99.90;;;;;;4977869;28;20039;-85
2024/01/02 11:15:27;;;;;;;28.27;12.10;;;11.50;99.90;;;;;;4976614;28;20046;-83
2024/01/02 11:17:57;;;;;;;21.58;9.98;;;11.50;99.90;;;;;;4964977;28;20497;-84
2024/01/02 11:20:35;;;;;;;18.73;8.70;;;11.50;99.90;;;;;;4964957;28;20046;-83
2024/01/02 11:23:15;;;;;;;17.85;8.00;;;11.50;99.90;;;;;;4964881;28;20042;-85
2024/01/02 11:25:59;;;;;;;16.92;7.40;;;11.50;99.90;;;;;;4981664;28;20053;-78
2024/01/02 11:28:29;;;;;;;13.82;7.38;;;11.50;99.90;;;;;;4981066;28;20034;-84
2024/01/02 11:30:57;;;;;;;11.65;6.88;;;11.40;99.90;;;;;;4950544;28;20042;-79
2024/01/02 11:33:36;;;;;;;9.45;5.95;;;11.40;99.90;;;;;;4963135;28;20041;-84
2024/01/02 11:36:05;;;;;;;9.90;6.22;;;11.40;99.90;;;;;;4964849;28;20034;-85
2024/01/02 11:38:46;;;;;;;8.10;5.68;;;11.40;99.90;;;;;;4963634;28;20045;-83
2024/01/02 11:41:34;;;;;;;7.32;4.82;;;11.40;99.90;;;;;;4981084;28;20515;-82
2024/01/02 11:44:12;;;;;;;7.95;6.18;;;11.40;99.90;;;;;;4965403;28;20041;-82
2024/01/02 11:46:43;;;;;;;7.30;5.38;;;11.40;99.90;;;;;;4982182;28;20349;-83
2024/01/02 11:49:16;;;;;;;9.52;6.22;;;11.40;99.90;;;;;;4967163;28;20038;-81
2024/01/02 11:51:57;;;;;;;8.63;5.10;;;11.40;99.90;;;;;;4985085;28;20041;-82
2024/01/02 11:54:45;;;;;;;5.60;3.95;;;11.40;99.90;;;;;;4980781;28;20034;-83
2024/01/02 11:57:27;;;;;;;4.50;3.90;;;11.40;99.90;;;;;;4966195;28;20029;-83
2024/01/02 12:00:00;;;;;;;7.60;5.53;;;11.40;99.90;;;;;;4980036;28;20038;-84
2024/01/02 12:02:42;;;;;;;;;;;11.40;99.90;;;;;;4980915;28;20046;-79
2024/01/02 12:05:23;;;;;;;6.22;4.57;;;11.40;99.90;;;;;;4964325;28;19940;-81
2024/01/02 12:07:55;;;;;;;5.45;4.18;;;11.40;99.90;;;;;;4963806;28;20049;-83
2024/01/02 12:10:32;;;;;;;3.83;2.83;;;11.40;99.90;;;;;;4981966;28;20034;-83
2024/01/02 12:13:23;;;;;;;3.83;3.38;;;11.40;99.90;;;;;;4980177;28;20046;-80
2024/01/02 12:15:54;;;;;;;4.07;3.38;;;11.40;99.90;;;;;;4964174;28;20050;-82
2024/01/02 12:18:22;;;;;;;2.17;1.85;;;11.40;99.90;;;;;;4963505;28;20389;-81
2024/01/02 12:21:01;;;;;;;2.45;1.98;;;11.40;99.90;;;;;;4962109;28;20039;-81
2024/01/02 12:23:31;;;;;;;2.60;1.98;;;11.40;99.90;;;;;;4978546;28;20042;-80
2024/01/02 12:26:03;;;;;;;2.65;2.03;;;11.30;99.90;;;;;;4964140;28;20444;-78
2024/01/02 12:28:32;;;;;;;2.35;2.10;;;11.40;99.90;;;;;;4969175;28;20508;-80
2024/01/02 12:31:11;;;;;;;2.30;1.48;;;11.30;99.90;;;;;;4997258;28;20038;-83
2024/01/02 12:33:45;;;;;;;2.38;2.08;;;11.30;99.90;;;;;;4980748;28;20508;-82
2024/01/02 12:36:22;;;;;;;2.97;2.60;;;11.40;99.90;;;;;;4962505;28;20049;-83
2024/01/02 12:38:51;;;;;;;4.38;3.33;;;11.30;99.90;;;;;;4961507;28;20069;-83
2024/01/02 12:41:22;;;;;;;4.50;4.10;;;11.30;99.90;;;;;;4963532;28;20046;-83
2024/01/02 12:43:59;;;;;;;5.80;5.07;;;11.30;99.90;;;;;;4963805;28;20034;-82
2024/01/02 12:46:33;;;;;;;6.85;6.25;;;11.30;99.90;;;;;;4979800;28;20049;-83
2024/01/02 12:49:07;;;;;;;5.93;5.43;;;11.30;99.90;;;;;;4979490;28;20041;-81
2024/01/02 12:51:37;;;;;;;5.53;5.03;;;11.30;99.90;;;;;;4995428;28;20041;-84
2024/01/02 12:54:04;;;;;;;5.95;5.35;;;11.30;99.90;;;;;;4962668;28;20485;-82
2024/01/02 12:56:32;;;;;;;3.95;3.65;;;11.20;99.90;;;;;;4962690;28;20042;-78